Shinkaiho — JD3177 — position and weather

sailwx.info

Track history (hours):
 
Tides and Currents Weather Stations Pressure Air Temp Water Temp Dewpoint Dewpoint Depression Visibility Wind Speed Wind Dir Waves Ship Positions

Shinkaiho

Last reported at 2018-Jun-07 02:38 UTC. Time now 2018-Jun-20 16:56 UTC.
Position N 35°19' E 139°43'.
Warning: this ship's position is 13 days out of date.

Length 34 m; draft 4.8 m.

Type: Tug. MMSI: 431002459.

Date/timePositionNaut miles runAvg speedWind from/ knotsBaromVisibWave heightAir tempDewpointWater temp
2018-Jun-07 02:38N 35°19' E 139°43'2 5.3
2018-Jun-07 02:15N 35°21' E 139°42'2 5.3
2018-Jun-07 01:50N 35°23' E 139°42'2 5.1
2018-Jun-07 01:30N 35°24' E 139°43'  
2018-Jun-04 19:24N 35°25' E 139°47'2 4.0
2018-Jun-04 18:52N 35°23' E 139°46'1 4.2
2018-Jun-04 18:30N 35°21' E 139°45'  
2018-May-31 05:08N 34°58' E 139°42'2 4.5
2018-May-31 04:39N 35°00' E 139°42'1 4.6
2018-May-31 04:29N 35°01' E 139°43'2 4.4
2018-May-31 03:59N 35°03' E 139°43'2 4.5
2018-May-31 03:30N 35°05' E 139°44'2 4.5
2018-May-31 03:00N 35°08' E 139°44'2 4.5
2018-May-31 02:29N 35°10' E 139°45'2 3.4
2018-May-31 01:59N 35°11' E 139°46'7 4.9
2018-May-31 00:39N 35°18' E 139°44'1 4.8
2018-May-31 00:30N 35°18' E 139°43'4 4.4
2018-May-30 23:34N 35°22' E 139°42'1 4.6
2018-May-30 23:25N 35°23' E 139°41'2 4.0
2018-May-30 23:00N 35°23' E 139°39'1 0.8
2018-May-30 21:42N 35°23' E 139°38'0 0.0
2018-May-30 21:09N 35°23' E 139°38'0 0.0
2018-May-30 20:48N 35°23' E 139°38'0 0.0
2018-May-30 20:27N 35°23' E 139°38'0 0.0
2018-May-30 20:00N 35°23' E 139°38'0 0.0
2018-May-30 19:09N 35°23' E 139°38'0 0.0
2018-May-30 18:57N 35°23' E 139°38'0 0.0
2018-May-30 17:39N 35°23' E 139°38'0 0.0
2018-May-30 17:21N 35°23' E 139°38'0 0.0
2018-May-30 17:00N 35°23' E 139°38'0 0.0
2018-May-30 15:57N 35°23' E 139°38'0 0.0
2018-May-30 15:12N 35°23' E 139°38'0 0.0
2018-May-30 14:51N 35°23' E 139°38'0 0.0
2018-May-30 14:21N 35°23' E 139°38'0 0.0
2018-May-30 14:00N 35°23' E 139°38'0 0.0
2018-May-30 12:27N 35°23' E 139°38'0 0.0
2018-May-30 12:00N 35°23' E 139°38'0 0.0
2018-May-30 11:18N 35°23' E 139°38'0 0.0
2018-May-30 11:00N 35°23' E 139°38'0 0.0
2018-May-30 10:24N 35°23' E 139°38'0 0.0
2018-May-30 09:54N 35°23' E 139°38'0 0.0
2018-May-30 09:12N 35°23' E 139°38'0 0.0
2018-May-30 08:24N 35°23' E 139°38'0 0.0
2018-May-30 07:57N 35°23' E 139°38'0 0.0
2018-May-30 07:21N 35°23' E 139°38'0 0.0
2018-May-30 06:36N 35°23' E 139°38'0 0.0
2018-May-30 06:27N 35°23' E 139°38'0 0.0
2018-May-30 05:44N 35°23' E 139°38'2 7.2
2018-May-30 05:28N 35°23' E 139°41'  
Track history (hours):
 
Tides and Currents Weather Stations Pressure Air Temp Water Temp Dewpoint Dewpoint Depression Visibility Wind Speed Wind Dir Waves Ship Positions

Shinkaiho

Last reported at 2018-Jun-07 02:38 UTC. Time now 2018-Jun-20 16:56 UTC.
Position N 35°19' E 139°43'.
Warning: this ship's position is 13 days out of date.

Length 34 m; draft 4.8 m.

Type: Tug. MMSI: 431002459.

Date/timePositionNaut miles runAvg speedWind from/ knotsBaromVisibWave heightAir tempDewpointWater temp
2018-Jun-07 02:38N 35°19' E 139°43'2 5.3
2018-Jun-07 02:15N 35°21' E 139°42'2 5.3
2018-Jun-07 01:50N 35°23' E 139°42'2 5.1
2018-Jun-07 01:30N 35°24' E 139°43'  
2018-Jun-04 19:24N 35°25' E 139°47'2 4.0
2018-Jun-04 18:52N 35°23' E 139°46'1 4.2
2018-Jun-04 18:30N 35°21' E 139°45'  
2018-May-31 05:08N 34°58' E 139°42'2 4.5
2018-May-31 04:39N 35°00' E 139°42'1 4.6
2018-May-31 04:29N 35°01' E 139°43'2 4.4
2018-May-31 03:59N 35°03' E 139°43'2 4.5
2018-May-31 03:30N 35°05' E 139°44'2 4.5
2018-May-31 03:00N 35°08' E 139°44'2 4.5
2018-May-31 02:29N 35°10' E 139°45'2 3.4
2018-May-31 01:59N 35°11' E 139°46'7 4.9
2018-May-31 00:39N 35°18' E 139°44'1 4.8
2018-May-31 00:30N 35°18' E 139°43'4 4.4
2018-May-30 23:34N 35°22' E 139°42'1 4.6
2018-May-30 23:25N 35°23' E 139°41'2 4.0
2018-May-30 23:00N 35°23' E 139°39'1 0.8
2018-May-30 21:42N 35°23' E 139°38'0 0.0
2018-May-30 21:09N 35°23' E 139°38'0 0.0
2018-May-30 20:48N 35°23' E 139°38'0 0.0
2018-May-30 20:27N 35°23' E 139°38'0 0.0
2018-May-30 20:00N 35°23' E 139°38'0 0.0
2018-May-30 19:09N 35°23' E 139°38'0 0.0
2018-May-30 18:57N 35°23' E 139°38'0 0.0
2018-May-30 17:39N 35°23' E 139°38'0 0.0
2018-May-30 17:21N 35°23' E 139°38'0 0.0
2018-May-30 17:00N 35°23' E 139°38'0 0.0
2018-May-30 15:57N 35°23' E 139°38'0 0.0
2018-May-30 15:12N 35°23' E 139°38'0 0.0
2018-May-30 14:51N 35°23' E 139°38'0 0.0
2018-May-30 14:21N 35°23' E 139°38'0 0.0
2018-May-30 14:00N 35°23' E 139°38'0 0.0
2018-May-30 12:27N 35°23' E 139°38'0 0.0
2018-May-30 12:00N 35°23' E 139°38'0 0.0
2018-May-30 11:18N 35°23' E 139°38'0 0.0
2018-May-30 11:00N 35°23' E 139°38'0 0.0
2018-May-30 10:24N 35°23' E 139°38'0 0.0
2018-May-30 09:54N 35°23' E 139°38'0 0.0
2018-May-30 09:12N 35°23' E 139°38'0 0.0
2018-May-30 08:24N 35°23' E 139°38'0 0.0
2018-May-30 07:57N 35°23' E 139°38'0 0.0
2018-May-30 07:21N 35°23' E 139°38'0 0.0
2018-May-30 06:36N 35°23' E 139°38'0 0.0
2018-May-30 06:27N 35°23' E 139°38'0 0.0
2018-May-30 05:44N 35°23' E 139°38'2 7.2
2018-May-30 05:28N 35°23' E 139°41'  

Dump ship's entire track history